Aérodrome :
LOGIN :

S'inscrire | Disclaimer

   EN    FR    IT 

 










Légende :    VFR   VFR Marginal   IFR   IFR Intensif   IFR Très Intensif
Visi : 
Plafond : 
>= 8 km
>= 3000ft
5 à 8 km
1000 à 3000 ft
1500m à 5 km
500 à 1000 ft
800 à 1500m
200 à 500 ft
< 800m
< 200 ft
Symboles :   Orages  Brouillard  Fortes neiges  Fortes précipitations  Vent > 20 kt
SIGMETs :   Divers  Orages  Givrage  Turbulence  Onde Orograph.  Cendres Volcan.







- Altitude de l'aérodrome : 650 ft
- Code IATA : ZJI


LSZL - Locarno

DERNIER METAR :
  • 230650Z 00000KT 1600 RA BR FEW001 OVC015 14/14 Q1014 RMK YLO

METARs EXPIRÉS :
  • 230620Z 00000KT 1600 RA BR FEW001 SCT010 OVC015 14/14 Q1014 RMK YLO
  • 230550Z 00000KT 2500 -SHRA BR FEW001 OVC025 13/13 Q1014 RMK YLO
  • 230520Z 00000KT 2500 -SHRA FEW001 BKN025 13/13 Q1014 RESHRA RMK YLO
  • 230450Z AUTO 10002KT 4500NDV -RA BR BKN023 BKN028 14/14 Q1014 RERA RMK
  • 230420Z AUTO VRB02KT 3300NDV +RA BR FEW002 BKN022 14/14 Q1014 RMK
  • 222350Z AUTO VRB01KT 7000NDV FEW038 BKN047 14/14 Q1016 RMK

TAF TAF LSZL
Valide du 23 à 06h jusqu'au 23 à 15h UTC


230525Z 2306/2315 VRB03KT 4000 RA FEW003 BKN020
BECMG 2306/2309 9999 NSW
Pas de NOTAMs connus pour ce terrain.



MET'MAP, la Météo Aéronautique d'un coup d'oeil ! - Copyright ORBIFLY Décembre 2007 - Disclaimer

ORBIFLY MET'MAP TEAM :

Programmation & Développement : Alexandra Zaïnal
Conception & Développement : Baudouin d'Aumeries
Co-Programmation & Développement : Marc-Olivier Méhu
Soutien technique & logistique : Manuel Goepfert

Contact : metmap@orbifly.com




SOURCES & CREDITS :

   NOAA